Anderson, Alaska
Current Conditions -  °F | °C
As of 4:32 PM on Friday 24 Oct 2014 (Local Time) from PANN Reporting Station
Light Snow Light Snow  
Wind Chill: 25°   Ceiling: 4100
Heat Index: 25°   Visibility: 3mi
Dew Point: 20°   Wind: 0mph
Humidity: 81%   Direction: NA
Pressure: 29.9"   Gusts: NA
Location:  64.34°N, 149.19°W
Report Text: PANN 250032Z AUTO 00000KT 3SM -SN SCT025 BKN041 OVC055 M04/M07 A2990 RMK AO2 P0001 T10391067 TSNO
Loading
Personal Weather Stations






























Interactive Weather Map
Tropical Storm Tracking
New forecast layout! Learn more

10-Day Weather Forecast

Advertisements
Track Severe Weather on mobile